Kirovsk, Russia
Current Conditions -  °F | °C
As of 4:30 PM on Sunday 23 Nov 2014 (Local Time) from ULMM Reporting Station
Broken Clouds Broken Clouds  
Wind Chill: 19°   Ceiling: 1200
Heat Index: 25°   Visibility: 6mi
Dew Point: 23°   Wind: 4mph
Humidity: 93%   Direction: 180°S
Pressure: 30.33"   Gusts: NA
Location:  67.61°N, 33.67°E
Report Text: ULMM 231330Z 18002MPS 9999 BKN012 BKN080 M04/M05 Q1027 NOSIGRMK QFE763 31690140
Loading
Personal Weather Stations






























Interactive Weather Map New forecast layout! Learn more

10-Day Weather Forecast

Advertisements
Track Severe Weather on mobile